Time;durP1;ratioP1;P1;durP2;ratioP2;P2;SDS_P1;SDS_P2;PMS_P1;PMS_P2;Temp;Humidity;BMP_temperature;BMP_pressure;BME280_temperature;BME280_humidity;BME280_pressure;Samples;Min_cycle;Max_cycle;Signal;HPM_P1;HPM_P2
2023/09/24 00:00:39;;;;;;;12.35;8.75;;;11.90;99.90;;;;;;2087179;28;20071;-77
2023/09/24 00:01:40;;;;;;;13.18;9.05;;;11.90;99.90;;;;;;2081191;28;20047;-77
2023/09/24 00:02:40;;;;;;;11.63;9.00;;;11.90;99.90;;;;;;2097937;28;20041;-76
2023/09/24 00:03:41;;;;;;;11.73;8.70;;;11.90;99.90;;;;;;2104494;28;20023;-76
2023/09/24 00:04:42;;;;;;;9.45;7.57;;;11.90;99.90;;;;;;2104004;28;20028;-76
2023/09/24 00:05:42;;;;;;;11.23;7.97;;;11.90;99.90;;;;;;2108160;28;20456;-76
2023/09/24 00:06:45;;;;;;;14.02;8.32;;;11.90;99.90;;;;;;2095462;28;21043;-76
2023/09/24 00:07:46;;;;;;;10.23;7.65;;;11.90;99.90;;;;;;2084261;28;20566;-77
2023/09/24 00:08:48;;;;;;;10.38;8.00;;;11.90;99.90;;;;;;2099598;28;20027;-77
2023/09/24 00:09:49;;;;;;;10.55;7.35;;;11.90;99.90;;;;;;2107864;28;20035;-77
2023/09/24 00:10:52;;;;;;;11.93;7.07;;;11.90;99.90;;;;;;2092107;28;20036;-77
2023/09/24 00:11:53;;;;;;;9.73;7.10;;;11.90;99.90;;;;;;2099531;28;20039;-77
2023/09/24 00:12:54;;;;;;;8.70;6.30;;;11.90;99.90;;;;;;2091249;28;20031;-75
2023/09/24 00:13:54;;;;;;;10.63;6.55;;;11.90;99.90;;;;;;2099771;28;20605;-77
2023/09/24 00:14:56;;;;;;;8.55;6.53;;;11.90;99.90;;;;;;2095635;28;20104;-77
2023/09/24 00:16:06;;;;;;;8.32;5.85;;;11.90;99.90;;;;;;2084013;28;20025;-77
2023/09/24 00:17:08;;;;;;;7.50;5.30;;;11.90;99.90;;;;;;2086277;28;20033;-77
2023/09/24 00:18:09;;;;;;;6.63;5.10;;;11.90;99.90;;;;;;2099707;28;20438;-77
2023/09/24 00:19:09;;;;;;;7.38;5.00;;;12.00;99.90;;;;;;2103045;27;20212;-77
2023/09/24 00:20:10;;;;;;;8.73;5.15;;;11.90;99.90;;;;;;2089215;28;20059;-78
2023/09/24 00:21:12;;;;;;;7.43;5.07;;;11.90;99.90;;;;;;2094304;28;20602;-78
2023/09/24 00:22:13;;;;;;;7.93;5.10;;;11.90;99.90;;;;;;2103353;28;20574;-77
2023/09/24 00:23:16;;;;;;;6.97;4.90;;;11.90;99.90;;;;;;2099628;28;20508;-78
2023/09/24 00:24:17;;;;;;;6.07;4.50;;;11.90;99.90;;;;;;2088322;28;20020;-79
2023/09/24 00:25:18;;;;;;;7.03;4.50;;;11.90;99.90;;;;;;2091983;28;20032;-76
2023/09/24 00:26:18;;;;;;;6.55;4.60;;;11.90;99.90;;;;;;2101745;28;20016;-77
2023/09/24 00:27:19;;;;;;;5.97;4.38;;;11.90;99.90;;;;;;2092037;28;20035;-76
2023/09/24 00:28:20;;;;;;;5.50;4.38;;;11.90;99.90;;;;;;2082119;28;20116;-77
2023/09/24 00:29:21;;;;;;;6.70;4.82;;;11.90;99.90;;;;;;2086836;28;20062;-77
2023/09/24 00:30:22;;;;;;;6.65;4.78;;;12.00;99.90;;;;;;2095646;28;20020;-76
2023/09/24 00:31:23;;;;;;;5.57;4.45;;;11.90;99.90;;;;;;2099607;28;20020;-77
2023/09/24 00:32:24;;;;;;;6.78;4.25;;;11.90;99.90;;;;;;2098928;28;20085;-77
2023/09/24 00:33:25;;;;;;;5.88;4.20;;;12.00;99.90;;;;;;2099542;28;20056;-72
2023/09/24 00:34:26;;;;;;;6.30;3.70;;;12.00;99.90;;;;;;2090646;28;20110;-77
2023/09/24 00:35:27;;;;;;;6.85;4.43;;;12.10;99.90;;;;;;2098448;28;20020;-78
2023/09/24 00:36:27;;;;;;;6.78;4.60;;;12.10;99.90;;;;;;2099364;28;20111;-78
2023/09/24 00:37:28;;;;;;;8.82;5.05;;;12.10;99.90;;;;;;2098564;28;20028;-77
2023/09/24 00:38:28;;;;;;;6.60;5.00;;;12.10;99.90;;;;;;2091689;28;20051;-78
2023/09/24 00:39:30;;;;;;;6.55;4.97;;;12.10;99.90;;;;;;2098709;28;20028;-77
2023/09/24 00:40:30;;;;;;;8.98;5.97;;;12.10;99.90;;;;;;2088945;28;20035;-78
2023/09/24 00:41:31;;;;;;;8.90;5.70;;;12.10;99.90;;;;;;2085289;28;20063;-79
2023/09/24 00:42:32;;;;;;;9.82;5.82;;;12.10;99.90;;;;;;2101581;28;20399;-75
2023/09/24 00:43:34;;;;;;;8.73;5.90;;;12.10;99.90;;;;;;2099101;28;20444;-77
2023/09/24 00:44:36;;;;;;;6.47;5.18;;;12.10;99.90;;;;;;2099742;28;20142;-76
2023/09/24 00:45:37;;;;;;;8.05;5.15;;;12.10;99.90;;;;;;2107566;28;20115;-77
2023/09/24 00:46:38;;;;;;;8.70;4.60;;;12.10;99.90;;;;;;2098938;28;20073;-77
2023/09/24 00:47:43;;;;;;;7.68;4.80;;;12.00;99.90;;;;;;2107758;28;20108;-77
2023/09/24 00:48:44;;;;;;;6.03;4.22;;;12.00;99.90;;;;;;2102351;28;20394;-76
2023/09/24 00:49:45;;;;;;;6.05;4.05;;;12.00;99.90;;;;;;2087183;28;20027;-79
2023/09/24 00:50:46;;;;;;;4.90;3.67;;;12.00;99.90;;;;;;2099452;28;20502;-78
2023/09/24 00:51:48;;;;;;;8.20;4.22;;;12.10;99.90;;;;;;2093176;28;20029;-78
2023/09/24 00:52:50;;;;;;;7.43;3.90;;;12.10;99.90;;;;;;2092289;28;20032;-77
2023/09/24 00:53:53;;;;;;;5.88;3.80;;;12.10;99.90;;;;;;2106974;28;20068;-76
2023/09/24 00:54:54;;;;;;;4.38;3.53;;;12.10;99.90;;;;;;2099418;28;20017;-77
2023/09/24 00:55:56;;;;;;;5.75;3.80;;;12.10;99.90;;;;;;2111760;27;20622;-79
2023/09/24 00:57:00;;;;;;;4.88;3.70;;;12.20;99.90;;;;;;2102333;28;20548;-76
2023/09/24 00:58:03;;;;;;;5.32;3.53;;;12.20;99.90;;;;;;2088399;28;20032;-76
2023/09/24 00:59:06;;;;;;;5.80;3.95;;;12.20;99.90;;;;;;2082702;28;20032;-78
2023/09/24 01:00:11;;;;;;;6.90;4.05;;;12.10;99.90;;;;;;2094987;28;20047;-77
2023/09/24 01:01:12;;;;;;;6.25;4.20;;;12.10;99.90;;;;;;2105865;28;20032;-77
2023/09/24 01:02:14;;;;;;;4.97;3.72;;;12.10;99.90;;;;;;2095042;28;20024;-77
2023/09/24 01:03:16;;;;;;;5.80;3.92;;;12.00;99.90;;;;;;2089366;28;20033;-77
2023/09/24 01:04:17;;;;;;;5.70;3.70;;;12.00;99.90;;;;;;2102851;28;20059;-77
2023/09/24 01:05:18;;;;;;;7.10;4.03;;;12.00;99.90;;;;;;2103068;28;20531;-78
2023/09/24 01:06:19;;;;;;;4.78;3.83;;;11.90;99.90;;;;;;2106163;28;20023;-80
2023/09/24 01:07:23;;;;;;;6.53;4.22;;;11.90;99.90;;;;;;2099117;28;20123;-79
2023/09/24 01:08:25;;;;;;;5.20;3.88;;;11.90;99.90;;;;;;2084261;28;20040;-77
2023/09/24 01:09:27;;;;;;;6.90;3.83;;;11.90;99.90;;;;;;2091187;28;20028;-77
2023/09/24 01:10:28;;;;;;;6.65;4.13;;;11.80;99.90;;;;;;2091224;28;20398;-75
2023/09/24 01:11:31;;;;;;;5.78;3.90;;;11.80;99.90;;;;;;2084988;28;20091;-77
2023/09/24 01:12:32;;;;;;;6.30;4.25;;;11.80;99.90;;;;;;2090565;28;20283;-76
2023/09/24 01:13:45;;;;;;;6.63;4.10;;;11.80;99.90;;;;;;2094239;28;20346;-76
2023/09/24 01:14:46;;;;;;;5.65;4.20;;;11.70;99.90;;;;;;2102320;27;20038;-77
2023/09/24 01:15:48;;;;;;;6.35;4.43;;;11.80;99.90;;;;;;2104552;28;20073;-77
2023/09/24 01:16:49;;;;;;;5.65;4.57;;;11.80;99.90;;;;;;2108418;27;20527;-77
2023/09/24 01:17:52;;;;;;;7.07;4.68;;;11.70;99.90;;;;;;2109825;27;20035;-78
2023/09/24 01:18:53;;;;;;;6.88;4.88;;;11.70;99.90;;;;;;2099559;28;20095;-77
2023/09/24 01:19:55;;;;;;;7.25;6.35;;;11.70;99.90;;;;;;2107688;28;20556;-77
2023/09/24 01:20:56;;;;;;;9.55;6.70;;;11.70;99.90;;;;;;2107232;28;20133;-78
2023/09/24 01:22:01;;;;;;;10.88;6.95;;;11.70;99.90;;;;;;2102964;28;20036;-76
2023/09/24 01:23:04;;;;;;;9.65;6.78;;;11.60;99.90;;;;;;2100715;28;20150;-77
2023/09/24 01:24:06;;;;;;;9.48;7.10;;;11.60;99.90;;;;;;2098981;28;20426;-76
2023/09/24 01:25:08;;;;;;;11.90;7.80;;;11.60;99.90;;;;;;2090973;28;20132;-77
2023/09/24 01:26:11;;;;;;;9.02;7.47;;;11.50;99.90;;;;;;2097716;28;20518;-77
2023/09/24 01:27:11;;;;;;;9.85;7.47;;;11.50;99.90;;;;;;2094639;28;20352;-77
2023/09/24 01:28:12;;;;;;;11.00;7.47;;;11.40;99.90;;;;;;2090322;28;20506;-77
2023/09/24 01:29:13;;;;;;;9.77;7.18;;;11.40;99.90;;;;;;2097099;28;20103;-78
2023/09/24 01:30:14;;;;;;;12.00;7.53;;;11.40;99.90;;;;;;2098942;28;20510;-77
2023/09/24 01:31:21;;;;;;;11.35;7.57;;;11.30;99.90;;;;;;2083527;28;20036;-77
2023/09/24 01:32:22;;;;;;;10.20;7.30;;;11.30;99.90;;;;;;2093007;28;20479;-77
2023/09/24 01:33:23;;;;;;;9.43;7.75;;;11.30;99.90;;;;;;2106605;28;20391;-77
2023/09/24 01:34:25;;;;;;;10.95;7.63;;;11.30;99.90;;;;;;2107567;28;20015;-76
2023/09/24 01:35:29;;;;;;;10.35;7.47;;;11.30;99.90;;;;;;2099071;28;20019;-77
2023/09/24 01:36:30;;;;;;;9.73;7.57;;;11.20;99.90;;;;;;2086941;28;20198;-78
2023/09/24 01:37:33;;;;;;;11.27;7.30;;;11.20;99.90;;;;;;2095150;28;20027;-77
2023/09/24 01:38:34;;;;;;;10.77;7.53;;;11.20;99.90;;;;;;2090749;28;20021;-76
2023/09/24 01:39:36;;;;;;;9.88;7.03;;;11.10;99.90;;;;;;2094746;28;20459;-77
2023/09/24 01:40:37;;;;;;;13.05;7.60;;;11.10;99.90;;;;;;2093605;28;20092;-76
2023/09/24 01:41:38;;;;;;;9.93;6.95;;;11.10;99.90;;;;;;2090880;28;20279;-78
2023/09/24 01:42:39;;;;;;;10.88;7.63;;;11.10;99.90;;;;;;2098808;28;20317;-78
2023/09/24 01:43:43;;;;;;;11.80;7.50;;;11.10;99.90;;;;;;2079325;28;20037;-77
2023/09/24 01:44:43;;;;;;;8.98;7.13;;;11.10;99.90;;;;;;2087230;28;20059;-77
2023/09/24 01:45:44;;;;;;;9.70;7.22;;;11.10;99.90;;;;;;2088280;28;20032;-77
2023/09/24 01:46:47;;;;;;;10.07;7.03;;;11.10;99.90;;;;;;2096503;28;20035;-76
2023/09/24 01:47:50;;;;;;;11.00;7.22;;;11.10;99.90;;;;;;2094811;28;22718;-77
2023/09/24 01:48:54;;;;;;;9.57;7.32;;;11.00;99.90;;;;;;2108028;28;20032;-78
2023/09/24 01:49:56;;;;;;;9.55;7.22;;;11.10;99.90;;;;;;2114245;27;20014;-78
2023/09/24 01:50:57;;;;;;;8.70;6.75;;;11.00;99.90;;;;;;2094396;28;20028;-78
2023/09/24 01:51:58;;;;;;;8.73;6.70;;;11.00;99.90;;;;;;2099023;28;20560;-76
2023/09/24 01:52:59;;;;;;;10.40;7.10;;;11.00;99.90;;;;;;2096694;28;20598;-76
2023/09/24 01:54:00;;;;;;;9.27;6.70;;;11.00;99.90;;;;;;2099687;28;20376;-77
2023/09/24 01:55:01;;;;;;;10.07;6.85;;;11.00;99.90;;;;;;2108023;28;20012;-77
2023/09/24 01:56:04;;;;;;;9.00;6.85;;;11.00;99.90;;;;;;2108212;28;20707;-78
2023/09/24 01:57:05;;;;;;;10.10;7.18;;;11.00;99.90;;;;;;2098837;28;20081;-77
2023/09/24 01:58:05;;;;;;;9.73;7.28;;;10.90;99.90;;;;;;2090600;28;20495;-77
2023/09/24 01:59:06;;;;;;;9.95;6.50;;;10.90;99.90;;;;;;2085522;28;20033;-77
2023/09/24 02:01:41;;;;;;;11.55;7.30;;;10.90;99.90;;;;;;2086551;28;20078;-77
2023/09/24 02:02:43;;;;;;;11.05;6.80;;;10.80;99.90;;;;;;2085354;28;20041;-78
2023/09/24 02:03:46;;;;;;;10.32;6.88;;;10.80;99.90;;;;;;2088966;28;20044;-77
2023/09/24 02:04:48;;;;;;;9.10;6.65;;;10.80;99.90;;;;;;2099163;28;20071;-77
2023/09/24 02:05:48;;;;;;;8.63;6.78;;;10.70;99.90;;;;;;2099196;28;20917;-77
2023/09/24 02:06:49;;;;;;;8.63;6.88;;;10.70;99.90;;;;;;2093257;28;20131;-76
2023/09/24 02:07:50;;;;;;;8.00;6.78;;;10.70;99.90;;;;;;2107308;28;20032;-78
2023/09/24 02:08:51;;;;;;;9.75;6.70;;;10.60;99.90;;;;;;2112326;27;20071;-77
2023/09/24 02:09:52;;;;;;;12.45;7.05;;;10.70;99.90;;;;;;2103665;28;20067;-77
2023/09/24 02:10:52;;;;;;;9.98;7.10;;;10.60;99.90;;;;;;2100263;28;20028;-78
2023/09/24 02:11:56;;;;;;;10.63;6.78;;;10.70;99.90;;;;;;2106980;28;20028;-78
2023/09/24 02:12:57;;;;;;;9.57;6.63;;;10.60;99.90;;;;;;2091744;28;20070;-78
2023/09/24 02:13:58;;;;;;;10.07;6.82;;;10.60;99.90;;;;;;2094980;28;20519;-76
2023/09/24 02:14:59;;;;;;;8.80;6.80;;;10.60;99.90;;;;;;2098726;28;20051;-77
2023/09/24 02:16:00;;;;;;;8.75;6.55;;;10.60;99.90;;;;;;2092717;28;20028;-77
2023/09/24 02:17:02;;;;;;;9.70;6.60;;;10.60;99.90;;;;;;2102868;28;20615;-78
2023/09/24 02:18:04;;;;;;;9.90;6.50;;;10.50;99.90;;;;;;2110867;28;20023;-78
2023/09/24 02:19:05;;;;;;;11.52;6.80;;;10.50;99.90;;;;;;2102574;28;20028;-76
2023/09/24 02:20:15;;;;;;;8.70;6.50;;;10.50;99.90;;;;;;2097791;28;20119;-77
2023/09/24 02:21:17;;;;;;;8.70;6.47;;;10.50;99.90;;;;;;2101630;28;20033;-78
2023/09/24 02:22:18;;;;;;;8.52;6.20;;;10.50;99.90;;;;;;2101963;28;20020;-78
2023/09/24 02:23:19;;;;;;;8.18;6.03;;;10.40;99.90;;;;;;2098100;28;20330;-78
2023/09/24 02:24:20;;;;;;;8.90;6.32;;;10.40;99.90;;;;;;2109178;28;20185;-77
2023/09/24 02:25:21;;;;;;;8.15;6.32;;;10.40;99.90;;;;;;2100819;28;20295;-77
2023/09/24 02:26:21;;;;;;;10.02;6.53;;;10.40;99.90;;;;;;2101112;28;20113;-78
2023/09/24 02:27:22;;;;;;;8.35;6.47;;;10.40;99.90;;;;;;2098976;28;20032;-77
2023/09/24 02:28:24;;;;;;;8.80;6.55;;;10.40;99.90;;;;;;2105262;28;20106;-77
2023/09/24 02:29:26;;;;;;;8.43;6.28;;;10.40;99.90;;;;;;2108856;28;20027;-77
2023/09/24 02:30:28;;;;;;;11.85;7.00;;;10.30;99.90;;;;;;2094755;28;20633;-77
2023/09/24 02:31:30;;;;;;;10.48;7.22;;;10.30;99.90;;;;;;2103471;28;20032;-76
2023/09/24 02:32:32;;;;;;;9.60;6.88;;;10.40;99.90;;;;;;2100317;28;20279;-77
2023/09/24 02:33:34;;;;;;;10.30;6.60;;;10.30;99.90;;;;;;2091821;28;20431;-77
2023/09/24 02:34:35;;;;;;;8.70;6.63;;;10.30;99.90;;;;;;2084036;28;20478;-77
2023/09/24 02:35:36;;;;;;;9.38;7.40;;;10.30;99.90;;;;;;2099074;28;20055;-76
2023/09/24 02:36:37;;;;;;;10.32;7.35;;;10.30;99.90;;;;;;2091802;28;20098;-76
2023/09/24 02:37:42;;;;;;;9.30;7.25;;;10.30;99.90;;;;;;2092021;28;20791;-77
2023/09/24 02:38:43;;;;;;;11.82;7.80;;;10.20;99.90;;;;;;2098628;28;20017;-76
2023/09/24 02:39:44;;;;;;;9.23;7.57;;;10.20;99.90;;;;;;2102830;28;20141;-77
2023/09/24 02:40:44;;;;;;;10.85;7.25;;;10.20;99.90;;;;;;2105002;28;20353;-79
2023/09/24 02:41:45;;;;;;;9.00;7.15;;;10.20;99.90;;;;;;2100343;28;20038;-78
2023/09/24 02:42:48;;;;;;;11.32;7.50;;;10.20;99.90;;;;;;2097469;28;20118;-76
2023/09/24 02:43:49;;;;;;;10.50;6.93;;;10.10;99.90;;;;;;2100350;28;20218;-77
2023/09/24 02:44:50;;;;;;;10.57;7.20;;;10.10;99.90;;;;;;2100349;28;20094;-77
2023/09/24 02:45:50;;;;;;;13.10;7.35;;;10.10;99.90;;;;;;2102386;28;20027;-76
2023/09/24 02:46:51;;;;;;;12.10;7.55;;;10.10;99.90;;;;;;2094470;28;20479;-76
2023/09/24 02:47:51;;;;;;;9.65;7.05;;;10.10;99.90;;;;;;2098546;28;20032;-78
2023/09/24 02:48:53;;;;;;;9.60;7.13;;;10.10;99.90;;;;;;2097810;28;20077;-78
2023/09/24 02:49:54;;;;;;;9.75;6.97;;;10.10;99.90;;;;;;2109575;27;20015;-77
2023/09/24 02:50:54;;;;;;;9.05;6.90;;;10.10;99.90;;;;;;2101854;28;20507;-77
2023/09/24 02:51:55;;;;;;;9.02;6.75;;;10.10;99.90;;;;;;2110390;27;20406;-77
2023/09/24 02:52:58;;;;;;;10.05;6.63;;;10.10;99.90;;;;;;2108068;27;20504;-77
2023/09/24 02:53:59;;;;;;;9.80;6.80;;;10.20;99.90;;;;;;2101288;28;20442;-78
2023/09/24 02:55:00;;;;;;;10.30;6.32;;;10.20;99.90;;;;;;2100858;28;20052;-78
2023/09/24 02:56:04;;;;;;;10.00;6.40;;;10.20;99.90;;;;;;2107559;28;20046;-76
2023/09/24 02:57:04;;;;;;;9.15;6.28;;;10.20;99.90;;;;;;2108302;28;20084;-77
2023/09/24 02:58:05;;;;;;;9.15;6.80;;;10.20;99.90;;;;;;2091861;28;20413;-79
2023/09/24 02:59:06;;;;;;;9.57;6.65;;;10.20;99.90;;;;;;2092223;28;20124;-80
2023/09/24 03:00:17;;;;;;;10.63;6.70;;;10.20;99.90;;;;;;2105800;28;20023;-79
2023/09/24 03:01:20;;;;;;;8.80;6.50;;;10.20;99.90;;;;;;2100133;28;20468;-80
2023/09/24 03:02:20;;;;;;;8.73;6.60;;;10.10;99.90;;;;;;2104088;28;20728;-80
2023/09/24 03:03:21;;;;;;;10.00;6.85;;;10.10;99.90;;;;;;2104686;28;20027;-81
2023/09/24 03:04:22;;;;;;;7.70;6.40;;;10.10;99.90;;;;;;2097693;28;20031;-80
2023/09/24 03:05:24;;;;;;;8.20;6.57;;;10.10;99.90;;;;;;2099222;28;20031;-80
2023/09/24 03:06:26;;;;;;;11.60;6.68;;;10.10;99.90;;;;;;2106767;28;20454;-79
2023/09/24 03:07:28;;;;;;;9.45;6.90;;;10.10;99.90;;;;;;2108706;28;20034;-79
2023/09/24 03:08:32;;;;;;;9.70;6.30;;;10.00;99.90;;;;;;2102574;28;20028;-75
2023/09/24 03:09:32;;;;;;;8.18;6.13;;;10.10;99.90;;;;;;2108366;28;20023;-74
2023/09/24 03:10:35;;;;;;;10.13;6.57;;;10.00;99.90;;;;;;2101817;28;20500;-75
2023/09/24 03:11:37;;;;;;;9.18;6.05;;;10.00;99.90;;;;;;2091893;28;20030;-74
2023/09/24 03:12:37;;;;;;;8.88;6.40;;;10.00;99.90;;;;;;2087607;28;20028;-75
2023/09/24 03:13:38;;;;;;;9.93;6.45;;;10.00;99.90;;;;;;2099579;28;20077;-74
2023/09/24 03:14:38;;;;;;;9.48;6.80;;;10.00;99.90;;;;;;2100036;28;20099;-73
2023/09/24 03:15:39;;;;;;;7.75;6.35;;;10.00;99.90;;;;;;2104471;28;20035;-74
2023/09/24 03:16:39;;;;;;;8.07;6.28;;;10.00;99.90;;;;;;2108393;28;20110;-74
2023/09/24 03:17:42;;;;;;;7.68;5.97;;;10.00;99.90;;;;;;2108124;28;20031;-76
2023/09/24 03:18:43;;;;;;;10.45;6.32;;;10.00;99.90;;;;;;2098546;28;20021;-74
2023/09/24 03:19:44;;;;;;;8.25;6.10;;;10.00;99.90;;;;;;2091486;28;20024;-74
2023/09/24 03:20:44;;;;;;;8.20;6.35;;;10.00;99.90;;;;;;2093471;28;20056;-75
2023/09/24 03:21:45;;;;;;;9.00;6.22;;;10.00;99.90;;;;;;2106073;28;20054;-75
2023/09/24 03:22:51;;;;;;;9.55;6.60;;;10.00;99.90;;;;;;2091060;28;20107;-74
2023/09/24 03:23:52;;;;;;;9.23;6.43;;;10.00;99.90;;;;;;2104594;27;20028;-74
2023/09/24 03:24:52;;;;;;;9.15;6.43;;;10.00;99.90;;;;;;2103759;27;20036;-74
2023/09/24 03:25:53;;;;;;;9.80;6.50;;;10.00;99.90;;;;;;2104560;28;20510;-75
2023/09/24 03:26:54;;;;;;;7.28;5.95;;;10.00;99.90;;;;;;2107937;28;20147;-74
2023/09/24 03:27:56;;;;;;;8.50;6.60;;;10.00;99.90;;;;;;2109122;28;20035;-75
2023/09/24 03:28:58;;;;;;;8.15;6.38;;;10.00;99.90;;;;;;2108050;28;20030;-76
2023/09/24 03:29:58;;;;;;;9.05;6.55;;;10.00;99.90;;;;;;2091641;28;20058;-74
2023/09/24 03:31:00;;;;;;;9.45;6.72;;;10.10;99.90;;;;;;2099286;28;20055;-74
2023/09/24 03:32:00;;;;;;;10.27;6.78;;;10.10;99.90;;;;;;2093808;28;20063;-76
2023/09/24 03:33:03;;;;;;;9.68;6.78;;;10.10;99.90;;;;;;2099525;28;20175;-75
2023/09/24 03:34:04;;;;;;;9.35;7.03;;;10.10;99.90;;;;;;2098320;28;20088;-75
2023/09/24 03:35:09;;;;;;;8.80;7.18;;;10.10;99.90;;;;;;2079735;28;20018;-74
2023/09/24 03:36:10;;;;;;;9.13;6.50;;;10.10;99.90;;;;;;2096694;28;20159;-75
2023/09/24 03:37:10;;;;;;;8.85;7.03;;;10.10;99.90;;;;;;2099788;28;20089;-75
2023/09/24 03:38:11;;;;;;;8.40;7.10;;;10.00;99.90;;;;;;2108242;28;20031;-75
2023/09/24 03:39:11;;;;;;;8.52;6.57;;;10.00;99.90;;;;;;2108290;28;20042;-75
2023/09/24 03:40:14;;;;;;;10.05;6.85;;;10.00;99.90;;;;;;2090415;28;20033;-75
2023/09/24 03:41:15;;;;;;;8.38;6.93;;;10.00;99.90;;;;;;2096194;28;20047;-75
2023/09/24 03:42:16;;;;;;;9.77;7.35;;;10.00;99.90;;;;;;2093219;28;20024;-75
2023/09/24 03:43:16;;;;;;;11.35;7.05;;;10.00;99.90;;;;;;2081127;28;20047;-75
2023/09/24 03:44:17;;;;;;;9.68;7.20;;;10.00;99.90;;;;;;2102205;28;20019;-74
2023/09/24 03:45:20;;;;;;;9.52;6.80;;;10.00;99.90;;;;;;2107496;28;20100;-75
2023/09/24 03:46:21;;;;;;;11.30;7.30;;;10.00;99.90;;;;;;2108199;28;20072;-76
2023/09/24 03:47:21;;;;;;;9.32;6.85;;;10.00;99.90;;;;;;2099642;28;20032;-73
2023/09/24 03:48:23;;;;;;;8.90;6.75;;;10.00;99.90;;;;;;2108175;28;20108;-74
2023/09/24 03:49:24;;;;;;;9.13;7.00;;;10.00;99.90;;;;;;2109042;28;20058;-75
2023/09/24 03:50:24;;;;;;;10.10;6.97;;;10.00;99.90;;;;;;2104404;28;20024;-74
2023/09/24 03:51:25;;;;;;;9.05;6.85;;;10.00;99.90;;;;;;2095891;28;20441;-76
2023/09/24 03:52:26;;;;;;;9.07;6.78;;;10.00;99.90;;;;;;2087950;28;20032;-75
2023/09/24 03:53:26;;;;;;;7.90;6.60;;;10.00;99.90;;;;;;2101175;28;20512;-74
2023/09/24 03:54:27;;;;;;;9.98;6.85;;;10.00;99.90;;;;;;2104758;28;20106;-75
2023/09/24 03:55:30;;;;;;;9.35;7.18;;;10.00;99.90;;;;;;2108785;28;20051;-75
2023/09/24 03:56:30;;;;;;;10.20;7.40;;;10.00;99.90;;;;;;2109142;28;20055;-75
2023/09/24 03:57:31;;;;;;;9.57;7.22;;;9.90;99.90;;;;;;2107855;28;20031;-74
2023/09/24 03:58:32;;;;;;;10.60;7.45;;;10.00;99.90;;;;;;2099228;28;20466;-75
2023/09/24 03:59:36;;;;;;;10.50;7.30;;;10.00;99.90;;;;;;2097862;28;20031;-74
2023/09/24 04:00:37;;;;;;;13.43;7.25;;;10.00;99.90;;;;;;2107700;28;20031;-75
2023/09/24 04:01:39;;;;;;;10.68;7.47;;;9.90;99.90;;;;;;2104563;28;20119;-74
2023/09/24 04:02:39;;;;;;;9.38;7.20;;;9.90;99.90;;;;;;2093437;28;20042;-74
2023/09/24 04:03:42;;;;;;;8.77;7.13;;;9.90;99.90;;;;;;2083059;28;20033;-73
2023/09/24 04:04:43;;;;;;;9.48;6.88;;;9.90;99.90;;;;;;2090384;28;20013;-76
2023/09/24 04:05:44;;;;;;;10.30;7.00;;;9.90;99.90;;;;;;2087644;28;20651;-76
2023/09/24 04:06:44;;;;;;;9.60;6.80;;;9.90;99.90;;;;;;2105001;27;20027;-76
2023/09/24 04:07:46;;;;;;;9.70;6.93;;;10.00;99.90;;;;;;2115214;27;20024;-76
2023/09/24 04:08:47;;;;;;;8.90;6.68;;;9.90;99.90;;;;;;2102378;28;20035;-75
2023/09/24 04:09:47;;;;;;;8.93;7.25;;;9.90;99.90;;;;;;2100358;28;20132;-75
2023/09/24 04:10:49;;;;;;;9.15;7.18;;;9.90;99.90;;;;;;2100436;28;20062;-76
2023/09/24 04:11:50;;;;;;;9.93;7.20;;;9.90;99.90;;;;;;2105084;28;20035;-75
2023/09/24 04:12:50;;;;;;;10.20;7.10;;;9.90;99.90;;;;;;2102704;28;20027;-75
2023/09/24 04:13:51;;;;;;;9.45;7.07;;;9.90;99.90;;;;;;2109107;28;20042;-76
2023/09/24 04:14:53;;;;;;;8.73;6.80;;;9.90;99.90;;;;;;2108226;28;20028;-75
2023/09/24 04:15:54;;;;;;;9.23;6.93;;;9.90;99.90;;;;;;2100632;28;20035;-76
2023/09/24 04:16:57;;;;;;;8.88;6.63;;;9.90;99.90;;;;;;2106979;28;20051;-75
2023/09/24 04:17:59;;;;;;;8.75;6.63;;;9.90;99.90;;;;;;2119372;27;20474;-76
2023/09/24 04:19:00;;;;;;;10.02;7.00;;;9.90;99.90;;;;;;2097947;28;20856;-76
2023/09/24 04:20:00;;;;;;;8.98;7.07;;;9.90;99.90;;;;;;2096148;28;20099;-75
2023/09/24 04:21:02;;;;;;;8.63;6.85;;;9.90;99.90;;;;;;2090102;28;20021;-75
2023/09/24 04:22:02;;;;;;;9.55;6.80;;;9.80;99.90;;;;;;2083001;28;20249;-76
2023/09/24 04:23:03;;;;;;;10.95;6.55;;;9.80;99.90;;;;;;2096544;28;20025;-76
2023/09/24 04:24:04;;;;;;;8.40;6.55;;;9.90;99.90;;;;;;2106998;28;20090;-76
2023/09/24 04:25:05;;;;;;;11.07;6.82;;;9.90;99.90;;;;;;2099238;28;20038;-74
2023/09/24 04:26:05;;;;;;;10.18;6.80;;;9.80;99.90;;;;;;2108168;28;20035;-76
2023/09/24 04:27:06;;;;;;;8.05;6.53;;;9.80;99.90;;;;;;2107803;28;20063;-74
2023/09/24 04:28:06;;;;;;;9.43;6.80;;;9.80;99.90;;;;;;2108206;28;20051;-75
2023/09/24 04:29:07;;;;;;;11.35;6.90;;;9.90;99.90;;;;;;2100407;28;20047;-76
2023/09/24 04:30:15;;;;;;;8.95;6.70;;;9.80;99.90;;;;;;2108296;28;20538;-75
2023/09/24 04:31:16;;;;;;;9.70;6.50;;;9.80;99.90;;;;;;2099420;28;20060;-78
2023/09/24 04:32:17;;;;;;;8.20;6.40;;;9.80;99.90;;;;;;2106904;28;20036;-78
2023/09/24 04:33:18;;;;;;;9.88;6.20;;;9.70;99.90;;;;;;2104685;28;20677;-77
2023/09/24 04:34:19;;;;;;;9.45;6.40;;;9.70;99.90;;;;;;2097516;28;20044;-76
2023/09/24 04:35:20;;;;;;;9.15;5.80;;;9.70;99.90;;;;;;2102635;28;20050;-75
2023/09/24 04:36:21;;;;;;;9.55;6.60;;;9.70;99.90;;;;;;2108603;28;20514;-76
2023/09/24 04:37:22;;;;;;;8.00;6.00;;;9.70;99.90;;;;;;2098940;28;20020;-76
2023/09/24 04:38:22;;;;;;;8.30;6.03;;;9.70;99.90;;;;;;2103395;28;20468;-76
2023/09/24 04:39:23;;;;;;;10.63;6.47;;;9.70;99.90;;;;;;2100230;28;20554;-76
2023/09/24 04:40:26;;;;;;;9.93;6.28;;;9.60;99.90;;;;;;2098297;28;20036;-76
2023/09/24 04:41:27;;;;;;;8.52;6.30;;;9.60;99.90;;;;;;2095292;28;20068;-77
2023/09/24 04:42:27;;;;;;;10.73;6.20;;;9.60;99.90;;;;;;2099874;28;20084;-77
2023/09/24 04:43:28;;;;;;;10.15;6.85;;;9.60;99.90;;;;;;2105010;28;20039;-76
2023/09/24 04:44:28;;;;;;;9.40;6.47;;;9.60;99.90;;;;;;2107421;28;20066;-76
2023/09/24 04:45:29;;;;;;;7.20;6.30;;;9.60;99.90;;;;;;2099358;28;20062;-75
2023/09/24 04:46:30;;;;;;;7.63;6.00;;;9.60;99.90;;;;;;2105206;28;20023;-76
2023/09/24 04:47:30;;;;;;;8.25;6.35;;;9.60;99.90;;;;;;2102626;28;20732;-75
2023/09/24 04:48:35;;;;;;;8.32;6.55;;;9.60;99.90;;;;;;2108455;28;20032;-76
2023/09/24 04:49:35;;;;;;;8.73;6.30;;;9.60;99.90;;;;;;2107018;28;20572;-75
2023/09/24 04:50:36;;;;;;;9.77;6.57;;;9.60;99.90;;;;;;2099038;28;20032;-75
2023/09/24 04:51:37;;;;;;;7.47;6.38;;;9.60;99.90;;;;;;2092473;28;20066;-77
2023/09/24 04:52:38;;;;;;;8.50;6.22;;;9.60;99.90;;;;;;2106974;28;20019;-76
2023/09/24 04:53:39;;;;;;;8.63;6.43;;;9.60;99.90;;;;;;2107988;27;20020;-76
2023/09/24 04:54:39;;;;;;;10.20;6.35;;;9.60;99.90;;;;;;2099488;28;20123;-76
2023/09/24 04:55:40;;;;;;;8.32;6.25;;;9.60;99.90;;;;;;2107849;28;20653;-77
2023/09/24 04:56:41;;;;;;;9.05;6.30;;;9.60;99.90;;;;;;2104435;28;20549;-76
2023/09/24 04:57:45;;;;;;;7.45;6.28;;;9.60;99.90;;;;;;2101839;28;20272;-74
2023/09/24 04:58:46;;;;;;;8.25;6.20;;;9.60;99.90;;;;;;2095584;28;20891;-75
2023/09/24 04:59:47;;;;;;;7.60;6.40;;;9.60;99.90;;;;;;2084038;28;20028;-76
2023/09/24 05:00:48;;;;;;;8.98;6.72;;;9.60;99.90;;;;;;2091127;28;20036;-77
2023/09/24 05:01:50;;;;;;;7.35;6.28;;;9.60;99.90;;;;;;2101630;28;20019;-75
2023/09/24 05:02:50;;;;;;;9.77;7.03;;;9.60;99.90;;;;;;2101615;28;20536;-76
2023/09/24 05:03:53;;;;;;;8.27;6.50;;;9.60;99.90;;;;;;2101530;28;20119;-76
2023/09/24 05:04:54;;;;;;;7.82;6.65;;;9.60;99.90;;;;;;2104321;28;20028;-76
2023/09/24 05:05:54;;;;;;;7.25;6.43;;;9.60;99.90;;;;;;2105746;28;20163;-75
2023/09/24 05:06:55;;;;;;;9.75;6.30;;;9.60;99.90;;;;;;2106082;28;20039;-75
2023/09/24 05:07:56;;;;;;;10.20;6.18;;;9.60;99.90;;;;;;2108570;28;20031;-76
2023/09/24 05:08:56;;;;;;;7.40;6.20;;;9.70;99.90;;;;;;2096063;28;20033;-76
2023/09/24 05:09:57;;;;;;;7.63;6.03;;;9.70;99.90;;;;;;2104336;28;20047;-76
2023/09/24 05:10:58;;;;;;;9.80;6.22;;;9.80;99.90;;;;;;2095063;28;20514;-75
2023/09/24 05:11:58;;;;;;;8.23;6.30;;;9.80;99.90;;;;;;2099655;28;20027;-75
2023/09/24 05:13:03;;;;;;;8.45;6.20;;;9.80;99.90;;;;;;2105117;28;20447;-75
2023/09/24 05:14:03;;;;;;;8.70;6.40;;;9.90;99.90;;;;;;2107906;28;20031;-75
2023/09/24 05:15:04;;;;;;;11.13;7.25;;;9.90;99.90;;;;;;2107616;28;20067;-74
2023/09/24 05:16:05;;;;;;;9.23;5.90;;;9.90;99.90;;;;;;2108363;28;20082;-74
2023/09/24 05:17:06;;;;;;;10.40;6.80;;;9.90;99.90;;;;;;2104319;28;20052;-75
2023/09/24 05:18:06;;;;;;;9.60;6.55;;;9.90;99.90;;;;;;2099788;28;20063;-77
2023/09/24 05:19:07;;;;;;;9.18;6.43;;;10.00;99.90;;;;;;2102858;28;20031;-73
2023/09/24 05:20:09;;;;;;;8.50;5.90;;;10.00;99.90;;;;;;2101169;28;20020;-71
2023/09/24 05:21:17;;;;;;;10.15;6.50;;;10.00;99.90;;;;;;2106688;28;20035;-69